createdAt,value
2023-05-16T00:00:45.506Z,100236.13
2023-05-16T00:03:13.210Z,100237.75
2023-05-16T00:05:42.231Z,100238.16
2023-05-16T00:08:09.882Z,100230.56
2023-05-16T00:10:37.522Z,100236.56
2023-05-16T00:13:05.178Z,100228.94
2023-05-16T00:15:33.351Z,100227.47
2023-05-16T00:18:01.121Z,100229.19
2023-05-16T00:20:29.664Z,100230.34
2023-05-16T00:23:01.059Z,100224.97
2023-05-16T00:25:28.971Z,100222.47
2023-05-16T00:27:56.536Z,100223.97
2023-05-16T00:30:24.360Z,100222.16
2023-05-16T00:32:52.842Z,100235.22
2023-05-16T00:35:20.509Z,100227.72
2023-05-16T00:37:51.004Z,100233.19
2023-05-16T00:40:20.043Z,100242.47
2023-05-16T00:42:47.762Z,100239.25
2023-05-16T00:45:15.427Z,100238.59
2023-05-16T00:47:44.215Z,100239.25
2023-05-16T00:50:12.254Z,100242.00
2023-05-16T00:52:39.962Z,100247.16
2023-05-16T00:55:08.133Z,100244.47
2023-05-16T00:57:37.056Z,100245.78
2023-05-16T01:00:05.498Z,100250.19
2023-05-16T01:02:34.061Z,100250.84
2023-05-16T01:05:01.833Z,100248.63
2023-05-16T01:07:29.878Z,100248.44
2023-05-16T01:09:57.813Z,100244.63
2023-05-16T01:12:31.140Z,100244.94
2023-05-16T01:15:06.238Z,100244.44
2023-05-16T01:17:37.976Z,100242.19
2023-05-16T01:20:12.147Z,100242.84
2023-05-16T01:22:47.722Z,100244.53
2023-05-16T01:25:22.833Z,100247.81
2023-05-16T01:27:53.066Z,100237.09
2023-05-16T01:30:21.223Z,100237.91
2023-05-16T01:32:48.842Z,100237.25
2023-05-16T01:35:17.989Z,100234.81
2023-05-16T01:37:49.828Z,100234.94
2023-05-16T01:40:19.862Z,100241.31
2023-05-16T01:42:48.858Z,100241.41
2023-05-16T01:45:21.701Z,100238.16
2023-05-16T01:47:53.558Z,100246.78
2023-05-16T01:50:23.762Z,100240.59
2023-05-16T01:52:54.615Z,100242.59
2023-05-16T01:55:26.070Z,100241.66
2023-05-16T01:57:54.577Z,100245.69
2023-05-16T02:00:24.306Z,100249.72
2023-05-16T02:02:51.964Z,100243.00
2023-05-16T02:05:19.582Z,100251.00
2023-05-16T02:07:47.651Z,100242.31
2023-05-16T02:10:15.388Z,100247.53
2023-05-16T02:12:43.398Z,100245.19
2023-05-16T02:15:11.899Z,100242.56
2023-05-16T02:17:41.605Z,100247.69
2023-05-16T02:20:10.279Z,100250.00
2023-05-16T02:22:39.175Z,100255.25
2023-05-16T02:25:07.550Z,100252.53
2023-05-16T02:27:36.180Z,100254.59
2023-05-16T02:30:03.980Z,100255.75
2023-05-16T02:32:31.795Z,100266.75
2023-05-16T02:35:00.776Z,100269.44
2023-05-16T02:37:28.452Z,100263.91
2023-05-16T02:39:56.325Z,100264.03
2023-05-16T02:42:24.012Z,100262.56
2023-05-16T02:44:51.592Z,100269.66
2023-05-16T02:47:19.214Z,100273.00
2023-05-16T02:49:46.873Z,100282.50
2023-05-16T02:52:16.063Z,100284.97
2023-05-16T02:54:44.480Z,100277.88
2023-05-16T02:57:13.257Z,100290.22
2023-05-16T02:59:40.865Z,100285.38
2023-05-16T03:02:08.555Z,100283.41
2023-05-16T03:04:36.388Z,100288.06
2023-05-16T03:07:04.054Z,100288.88
2023-05-16T03:09:33.145Z,100295.69
2023-05-16T03:12:00.849Z,100288.22
2023-05-16T03:14:28.461Z,100289.91
2023-05-16T03:16:56.141Z,100303.38
2023-05-16T03:19:24.191Z,100295.84
2023-05-16T03:21:51.890Z,100299.78
2023-05-16T03:24:21.680Z,100312.44
2023-05-16T03:26:51.098Z,100317.41
2023-05-16T03:29:22.134Z,100310.94
2023-05-16T03:31:49.821Z,100318.97
2023-05-16T03:34:17.935Z,100321.34
2023-05-16T03:36:45.651Z,100320.28
2023-05-16T03:39:13.347Z,100318.28
2023-05-16T03:41:40.996Z,100317.09
2023-05-16T03:44:09.946Z,100320.06
2023-05-16T03:46:37.667Z,100322.41
2023-05-16T03:49:05.328Z,100325.13
2023-05-16T03:51:33.278Z,100325.13
2023-05-16T03:54:01.102Z,100331.28
2023-05-16T03:56:28.751Z,100341.16
2023-05-16T03:58:56.366Z,100343.75
2023-05-16T04:01:25.591Z,100346.59
2023-05-16T04:03:53.282Z,100352.81
2023-05-16T04:06:21.478Z,100358.66
2023-05-16T04:08:49.348Z,100356.78
2023-05-16T04:11:16.924Z,100372.41
2023-05-16T04:13:44.737Z,100367.69
2023-05-16T04:16:12.974Z,100375.16
2023-05-16T04:18:42.066Z,100368.19
2023-05-16T04:21:10.918Z,100370.00
2023-05-16T04:23:38.578Z,100373.78
2023-05-16T04:26:06.125Z,100381.59
2023-05-16T04:28:33.745Z,100386.38
2023-05-16T04:31:02.001Z,100384.97
2023-05-16T04:33:29.715Z,100387.56
2023-05-16T04:35:59.294Z,100384.38
2023-05-16T04:38:26.885Z,100394.19
2023-05-16T04:40:54.709Z,100396.06
2023-05-16T04:43:22.354Z,100407.41
2023-05-16T04:45:50.691Z,100408.66
2023-05-16T04:48:18.334Z,100403.22
2023-05-16T04:50:46.043Z,100418.03
2023-05-16T04:53:15.310Z,100416.16
2023-05-16T04:55:43.079Z,100417.59
2023-05-16T04:58:10.815Z,100430.22
2023-05-16T05:00:38.504Z,100426.72
2023-05-16T05:03:06.739Z,100431.28
2023-05-16T05:05:34.594Z,100429.16
2023-05-16T05:08:02.357Z,100431.94
2023-05-16T05:10:32.085Z,100438.97
2023-05-16T05:12:59.729Z,100438.59
2023-05-16T05:15:27.856Z,100436.16
2023-05-16T05:17:55.778Z,100444.19
2023-05-16T05:20:23.469Z,100443.38
2023-05-16T05:22:51.092Z,100442.53
2023-05-16T05:25:18.738Z,100444.00
2023-05-16T05:27:48.127Z,100450.88
2023-05-16T05:30:16.268Z,100458.91
2023-05-16T05:32:44.010Z,100459.09
2023-05-16T05:35:11.675Z,100468.06
2023-05-16T05:37:39.287Z,100476.81
2023-05-16T05:40:07.744Z,100481.94
2023-05-16T05:42:35.346Z,100476.69
2023-05-16T05:45:04.750Z,100491.63
2023-05-16T05:47:32.618Z,100490.22
2023-05-16T05:50:00.517Z,100496.03
2023-05-16T05:52:29.286Z,100499.31
2023-05-16T05:54:57.873Z,100505.56
2023-05-16T05:57:25.444Z,100509.28
2023-05-16T05:59:53.132Z,100506.19
2023-05-16T06:02:22.170Z,100513.34
2023-05-16T06:04:49.737Z,100516.03
2023-05-16T06:07:18.346Z,100520.50
2023-05-16T06:09:45.933Z,100520.69
2023-05-16T06:12:13.630Z,100532.91
2023-05-16T06:14:41.212Z,100520.59
2023-05-16T06:17:08.898Z,100530.09
2023-05-16T06:19:37.887Z,100533.56
2023-05-16T06:22:05.627Z,100533.41
2023-05-16T06:24:33.194Z,100541.69
2023-05-16T06:27:00.969Z,100550.06
2023-05-16T06:29:28.532Z,100549.47
2023-05-16T06:31:56.129Z,100552.69
2023-05-16T06:34:28.080Z,100557.00
2023-05-16T06:36:57.067Z,100551.78
2023-05-16T06:39:24.633Z,100560.53
2023-05-16T06:41:56.240Z,100558.19
2023-05-16T06:44:24.294Z,100557.31
2023-05-16T06:46:51.930Z,100559.34
2023-05-16T06:49:19.649Z,100558.75
2023-05-16T06:51:47.259Z,100554.22
2023-05-16T06:54:16.282Z,100559.06
2023-05-16T06:56:43.987Z,100557.78
2023-05-16T06:59:11.597Z,100568.34
2023-05-16T07:01:39.380Z,100564.34
2023-05-16T07:04:07.493Z,100567.56
2023-05-16T07:06:35.186Z,100569.28
2023-05-16T07:09:03.195Z,100569.03
2023-05-16T07:11:32.363Z,100580.56
2023-05-16T07:13:59.973Z,100573.50
2023-05-16T07:16:28.571Z,100583.41
2023-05-16T07:18:56.468Z,100587.00
2023-05-16T07:21:24.119Z,100575.25
2023-05-16T07:23:51.870Z,100579.50
2023-05-16T07:26:22.207Z,100576.44
2023-05-16T07:28:51.767Z,100582.16
2023-05-16T07:31:19.670Z,100590.06
2023-05-16T07:33:49.043Z,100572.22
2023-05-16T07:36:17.784Z,100590.16
2023-05-16T07:38:46.063Z,100580.59
2023-05-16T07:41:13.766Z,100587.84
2023-05-16T07:43:41.356Z,100584.78
2023-05-16T07:46:11.134Z,100569.66
2023-05-16T07:48:38.839Z,100582.47
2023-05-16T07:51:06.487Z,100580.50
2023-05-16T07:53:34.648Z,100583.75
2023-05-16T07:56:02.367Z,100589.13
2023-05-16T07:58:29.982Z,100588.50
2023-05-16T08:00:57.737Z,100585.63
2023-05-16T08:03:27.055Z,100588.19
2023-05-16T08:05:54.809Z,100590.34
2023-05-16T08:08:22.565Z,100580.56
2023-05-16T08:10:50.251Z,100590.16
2023-05-16T08:13:17.864Z,100606.03
2023-05-16T08:15:45.615Z,100603.72
2023-05-16T08:18:14.128Z,100592.03
2023-05-16T08:20:43.363Z,100592.44
2023-05-16T08:23:11.002Z,100590.50
2023-05-16T08:25:38.789Z,100587.91
2023-05-16T08:28:06.428Z,100590.72
2023-05-16T08:30:34.198Z,100588.94
2023-05-16T08:33:05.016Z,100595.16
2023-05-16T08:35:32.862Z,100607.69
2023-05-16T08:38:03.012Z,100607.19
2023-05-16T08:40:31.413Z,100602.31
2023-05-16T08:42:59.205Z,100592.53
2023-05-16T08:45:27.354Z,100601.81
2023-05-16T08:47:55.908Z,100593.81
2023-05-16T08:50:23.970Z,100599.44
2023-05-16T08:52:52.860Z,100589.63
2023-05-16T08:55:22.186Z,100593.38
2023-05-16T08:57:50.855Z,100585.31
2023-05-16T09:00:19.215Z,100589.19
2023-05-16T09:02:47.164Z,100599.19
2023-05-16T09:05:15.750Z,100584.00
2023-05-16T09:07:43.960Z,100585.06
2023-05-16T09:10:12.090Z,100589.66
2023-05-16T09:12:41.957Z,100586.19
2023-05-16T09:15:10.143Z,100591.28
2023-05-16T09:17:41.381Z,100581.78
2023-05-16T09:20:10.080Z,100592.03
2023-05-16T09:22:38.140Z,100593.56
2023-05-16T09:25:08.622Z,100588.22
2023-05-16T09:27:42.020Z,100597.50
2023-05-16T09:30:10.356Z,100600.72
2023-05-16T09:32:38.077Z,100592.41
2023-05-16T09:35:06.214Z,100594.19
2023-05-16T09:37:33.904Z,100594.59
2023-05-16T09:40:01.760Z,100589.59
2023-05-16T09:42:29.438Z,100585.16
2023-05-16T09:44:58.460Z,100584.25
2023-05-16T09:47:28.845Z,100595.03
2023-05-16T09:49:57.414Z,100588.13
2023-05-16T09:52:27.820Z,100598.28
2023-05-16T09:54:55.824Z,100593.13
2023-05-16T09:57:24.014Z,100596.69
2023-05-16T09:59:51.675Z,100586.88
2023-05-16T10:02:21.855Z,100584.72
2023-05-16T10:04:49.628Z,100596.19
2023-05-16T10:07:17.513Z,100588.13
2023-05-16T10:09:46.255Z,100582.03
2023-05-16T10:12:14.440Z,100579.84
2023-05-16T10:14:43.198Z,100583.16
2023-05-16T10:17:12.554Z,100582.72
2023-05-16T10:19:42.422Z,100572.09
2023-05-16T10:22:11.448Z,100567.09
2023-05-16T10:24:43.278Z,100575.16
2023-05-16T10:27:11.115Z,100572.88
2023-05-16T10:29:50.296Z,100574.63
2023-05-16T10:32:23.088Z,100580.13
2023-05-16T10:34:52.634Z,100574.41
2023-05-16T10:37:20.309Z,100576.44
2023-05-16T10:39:48.120Z,100582.72
2023-05-16T10:42:18.352Z,100570.50
2023-05-16T10:44:51.632Z,100577.78
2023-05-16T10:47:26.282Z,100577.94
2023-05-16T10:49:55.328Z,100572.66
2023-05-16T10:52:33.772Z,100578.19
2023-05-16T10:55:03.273Z,100569.28
2023-05-16T10:57:34.137Z,100575.94
2023-05-16T11:00:04.188Z,100569.50
2023-05-16T11:02:33.860Z,100576.50
2023-05-16T11:05:03.658Z,100576.44
2023-05-16T11:07:32.084Z,100578.59
2023-05-16T11:10:05.373Z,100578.00
2023-05-16T11:12:43.342Z,100567.75
2023-05-16T11:15:21.033Z,100566.25
2023-05-16T11:17:48.967Z,100586.59
2023-05-16T11:20:35.202Z,100571.94
2023-05-16T11:23:17.730Z,100562.06
2023-05-16T11:25:47.124Z,100567.16
2023-05-16T11:28:14.980Z,100567.47
2023-05-16T11:30:44.160Z,100574.13
2023-05-16T11:33:12.982Z,100577.47
2023-05-16T11:35:40.753Z,100566.03
2023-05-16T11:38:13.018Z,100577.84
2023-05-16T11:40:43.608Z,100576.97
2023-05-16T11:43:13.253Z,100579.31
2023-05-16T11:45:41.145Z,100575.97
2023-05-16T11:48:11.716Z,100577.16
2023-05-16T11:50:42.165Z,100573.19
2023-05-16T11:53:09.836Z,100582.03
2023-05-16T11:55:42.344Z,100586.38
2023-05-16T11:58:12.379Z,100591.06
2023-05-16T12:00:48.401Z,100592.06
2023-05-16T12:03:16.384Z,100588.09
2023-05-16T12:05:51.425Z,100595.25
2023-05-16T12:08:19.092Z,100590.16
2023-05-16T12:10:46.802Z,100591.50
2023-05-16T12:13:16.824Z,100587.91
2023-05-16T12:15:44.556Z,100588.75
2023-05-16T12:18:12.426Z,100588.59
2023-05-16T12:20:40.463Z,100583.25
2023-05-16T12:23:11.874Z,100592.94
2023-05-16T12:25:43.876Z,100591.59
2023-05-16T12:28:12.874Z,100587.78
2023-05-16T12:30:43.345Z,100587.63
2023-05-16T12:33:11.699Z,100586.34
2023-05-16T12:35:40.717Z,100594.84
2023-05-16T12:38:09.069Z,100608.59
2023-05-16T12:40:38.124Z,100606.25
2023-05-16T12:43:06.004Z,100596.50
2023-05-16T12:45:35.435Z,100601.34
2023-05-16T12:48:12.871Z,100597.69
2023-05-16T12:50:40.629Z,100585.94
2023-05-16T12:53:12.415Z,100587.59
2023-05-16T12:55:41.194Z,100591.91
2023-05-16T12:58:09.136Z,100593.91
2023-05-16T13:00:37.529Z,100593.00
2023-05-16T13:03:06.255Z,100599.09
2023-05-16T13:05:36.181Z,100601.16
2023-05-16T13:08:04.361Z,100590.69
2023-05-16T13:10:32.097Z,100595.63
2023-05-16T13:13:00.179Z,100592.56
2023-05-16T13:15:28.625Z,100587.91
2023-05-16T13:17:56.692Z,100595.28
2023-05-16T13:20:24.745Z,100591.59
2023-05-16T13:22:53.764Z,100596.75
2023-05-16T13:25:21.405Z,100603.72
2023-05-16T13:27:49.541Z,100607.03
2023-05-16T13:30:17.460Z,100604.06
2023-05-16T13:32:45.158Z,100599.31
2023-05-16T13:35:13.385Z,100605.94
2023-05-16T13:37:41.425Z,100603.97
2023-05-16T13:40:11.232Z,100603.81
2023-05-16T13:42:39.019Z,100612.69
2023-05-16T13:45:07.888Z,100612.47
2023-05-16T13:47:35.718Z,100620.31
2023-05-16T13:50:07.732Z,100620.34
2023-05-16T13:52:37.732Z,100620.88
2023-05-16T13:55:06.069Z,100622.63
2023-05-16T13:57:35.222Z,100624.13
2023-05-16T14:00:27.977Z,100628.41
2023-05-16T14:02:52.965Z,100629.22
2023-05-16T14:05:20.778Z,100633.75
2023-05-16T14:07:48.472Z,100632.16
2023-05-16T14:10:16.147Z,100628.56
2023-05-16T14:12:45.132Z,100633.91
2023-05-16T14:15:12.817Z,100636.56
2023-05-16T14:17:40.884Z,100634.81
2023-05-16T14:20:11.915Z,100641.72
2023-05-16T14:22:39.705Z,100638.03
2023-05-16T14:25:08.427Z,100648.56
2023-05-16T14:27:36.053Z,100639.50
2023-05-16T14:30:05.410Z,100646.34
2023-05-16T14:32:33.150Z,100639.19
2023-05-16T14:35:00.813Z,100633.47
2023-05-16T14:37:28.501Z,100639.38
2023-05-16T14:39:57.278Z,100633.16
2023-05-16T14:42:24.930Z,100626.19
2023-05-16T14:44:52.526Z,100624.97
2023-05-16T14:47:21.498Z,100638.19
2023-05-16T14:49:49.127Z,100629.03
2023-05-16T14:52:16.774Z,100623.72
2023-05-16T14:54:44.475Z,100645.22
2023-05-16T14:57:12.157Z,100644.81
2023-05-16T14:59:39.797Z,100646.88
2023-05-16T15:02:08.185Z,100641.09
2023-05-16T15:04:37.438Z,100645.94
2023-05-16T15:07:05.284Z,100646.97
2023-05-16T15:09:32.958Z,100658.88
2023-05-16T15:13:42.285Z,100634.19
2023-05-16T15:16:10.236Z,100665.44
2023-05-16T15:18:38.168Z,100676.78
2023-05-16T15:21:06.063Z,100648.50
2023-05-16T15:23:34.116Z,100672.88
2023-05-16T15:26:02.115Z,100665.38
2023-05-16T15:28:30.014Z,100652.84
2023-05-16T15:30:59.202Z,100688.88
2023-05-16T15:33:27.086Z,100682.28
2023-05-16T15:35:54.901Z,100638.19
2023-05-16T15:38:22.757Z,100685.16
2023-05-16T15:40:55.248Z,100680.47
2023-05-16T15:43:29.393Z,100691.69
2023-05-16T15:45:57.169Z,100692.19
2023-05-16T15:48:26.379Z,100691.56
2023-05-16T15:50:54.366Z,100700.31
2023-05-16T15:53:22.415Z,100695.06
2023-05-16T15:55:51.173Z,100691.44
2023-05-16T15:58:20.625Z,100691.44
2023-05-16T16:00:50.187Z,100687.84
2023-05-16T16:03:18.198Z,100683.25
2023-05-16T16:05:48.039Z,100690.31
2023-05-16T16:08:16.146Z,100688.63
2023-05-16T16:10:44.046Z,100698.59
2023-05-16T16:13:11.863Z,100697.84
2023-05-16T16:15:42.111Z,100704.53
2023-05-16T16:18:11.680Z,100661.66
2023-05-16T16:20:39.636Z,100699.88
2023-05-16T16:23:09.144Z,100693.41
2023-05-16T16:25:37.455Z,100696.09
2023-05-16T16:28:05.709Z,100695.59
2023-05-16T16:30:33.709Z,100695.44
2023-05-16T16:33:01.726Z,100698.31
2023-05-16T16:35:29.955Z,100691.28
2023-05-16T16:38:06.261Z,100698.66
2023-05-16T16:40:36.431Z,100703.66
2023-05-16T16:43:06.024Z,100699.50
2023-05-16T16:45:34.263Z,100702.78
2023-05-16T16:48:02.233Z,100705.38
2023-05-16T16:50:31.138Z,100697.06
2023-05-16T16:53:01.791Z,100700.22
2023-05-16T16:55:29.720Z,100694.66
2023-05-16T16:57:59.187Z,100704.25
2023-05-16T17:00:27.362Z,100690.13
2023-05-16T17:02:55.363Z,100706.06
2023-05-16T17:05:23.655Z,100692.50
2023-05-16T17:07:51.631Z,100707.09
2023-05-16T17:10:21.075Z,100701.72
2023-05-16T17:12:49.979Z,100705.47
2023-05-16T17:15:19.331Z,100703.47
2023-05-16T17:17:49.088Z,100668.34
2023-05-16T17:20:17.076Z,100709.84
2023-05-16T17:22:46.068Z,100715.25
2023-05-16T17:25:13.962Z,100713.31
2023-05-16T17:27:41.752Z,100715.41
2023-05-16T17:30:10.494Z,100723.19
2023-05-16T17:32:40.627Z,100710.88
2023-05-16T17:35:08.972Z,100723.56
2023-05-16T17:37:36.841Z,100726.13
2023-05-16T17:40:05.871Z,100728.81
2023-05-16T17:42:33.791Z,100724.88
2023-05-16T17:45:04.350Z,100730.63
2023-05-16T17:47:32.269Z,100731.59
2023-05-16T17:50:01.676Z,100730.84
2023-05-16T17:52:29.670Z,100720.59
2023-05-16T17:54:57.795Z,100727.47
2023-05-16T17:57:25.690Z,100729.81
2023-05-16T17:59:53.901Z,100718.63
2023-05-16T18:02:21.843Z,100739.66
2023-05-16T18:04:49.704Z,100735.78
2023-05-16T18:07:18.886Z,100716.53
2023-05-16T18:09:46.742Z,100746.25
2023-05-16T18:12:15.331Z,100747.94
2023-05-16T18:14:45.244Z,100706.81
2023-05-16T18:17:13.428Z,100749.25
2023-05-16T18:19:41.582Z,100756.66
2023-05-16T18:22:11.917Z,100758.69
2023-05-16T18:24:41.386Z,100731.34
2023-05-16T18:27:09.387Z,100696.16
2023-05-16T18:29:37.332Z,100767.72
2023-05-16T18:32:05.676Z,100757.88
2023-05-16T18:34:34.100Z,100743.88
2023-05-16T18:37:02.079Z,100764.41
2023-05-16T18:39:32.401Z,100779.03
2023-05-16T18:42:01.376Z,100775.03
2023-05-16T18:44:29.272Z,100773.31
2023-05-16T18:46:58.635Z,100787.81
2023-05-16T18:49:26.694Z,100783.44
2023-05-16T18:51:54.621Z,100784.94
2023-05-16T18:54:24.240Z,100778.00
2023-05-16T18:56:52.326Z,100787.81
2023-05-16T18:59:21.596Z,100726.81
2023-05-16T19:01:49.356Z,100759.56
2023-05-16T19:04:17.340Z,100805.72
2023-05-16T19:06:46.068Z,100803.66
2023-05-16T19:09:14.174Z,100815.16
2023-05-16T19:11:42.177Z,100822.38
2023-05-16T19:14:10.015Z,100824.72
2023-05-16T19:16:39.254Z,100827.78
2023-05-16T19:19:08.346Z,100747.31
2023-05-16T19:21:36.577Z,100835.16
2023-05-16T19:24:04.606Z,100834.94
2023-05-16T19:26:32.448Z,100833.19
2023-05-16T19:29:00.284Z,100839.84
2023-05-16T19:31:28.313Z,100837.63
2023-05-16T19:33:57.552Z,100815.50
2023-05-16T19:36:25.440Z,100842.63
2023-05-16T19:38:53.322Z,100850.22
2023-05-16T19:41:21.484Z,100846.75
2023-05-16T19:43:49.281Z,100844.16
2023-05-16T19:46:17.154Z,100848.69
2023-05-16T19:48:45.076Z,100853.28
2023-05-16T19:51:14.449Z,100803.59
2023-05-16T19:53:42.837Z,100855.81
2023-05-16T19:56:10.975Z,100851.38
2023-05-16T19:58:38.841Z,100838.94
2023-05-16T20:01:06.694Z,100857.31
2023-05-16T20:03:34.815Z,100751.88
2023-05-16T20:06:02.851Z,100848.25
2023-05-16T20:08:32.835Z,100857.34
2023-05-16T20:11:00.974Z,100857.03
2023-05-16T20:13:30.415Z,100832.28
2023-05-16T20:15:58.671Z,100863.47
2023-05-16T20:18:27.204Z,100860.22
2023-05-16T20:20:58.545Z,100851.41
2023-05-16T20:23:26.704Z,100868.47
2023-05-16T20:25:56.389Z,100867.78
2023-05-16T20:28:24.239Z,100868.72
2023-05-16T20:30:51.994Z,100873.06
2023-05-16T20:33:20.030Z,100868.19
2023-05-16T20:35:47.888Z,100867.44
2023-05-16T20:38:16.696Z,100847.06
2023-05-16T20:40:44.553Z,100850.22
2023-05-16T20:43:13.768Z,100880.81
2023-05-16T20:45:41.707Z,100878.03
2023-05-16T20:48:09.676Z,100878.31
2023-05-16T20:50:38.915Z,100875.09
2023-05-16T20:53:06.756Z,100867.81
2023-05-16T20:55:34.729Z,100867.47
2023-05-16T20:58:02.708Z,100862.13
2023-05-16T21:00:33.558Z,100866.56
2023-05-16T21:03:01.923Z,100869.56
2023-05-16T21:05:29.890Z,100859.06
2023-05-16T21:07:57.808Z,100864.75
2023-05-16T21:10:25.636Z,100865.84
2023-05-16T21:12:53.458Z,100843.13
2023-05-16T21:15:23.322Z,100867.88
2023-05-16T21:17:53.002Z,100865.94
2023-05-16T21:20:22.232Z,100849.19
2023-05-16T21:22:50.291Z,100864.47
2023-05-16T21:25:18.115Z,100861.47
2023-05-16T21:27:46.011Z,100867.88
2023-05-16T21:30:14.857Z,100868.25
2023-05-16T21:32:42.752Z,100872.94
2023-05-16T21:35:12.122Z,100867.81
2023-05-16T21:37:39.944Z,100875.22
2023-05-16T21:40:10.011Z,100870.78
2023-05-16T21:42:38.079Z,100877.94
2023-05-16T21:45:12.356Z,100881.56
2023-05-16T21:47:40.213Z,100884.13
2023-05-16T21:50:09.379Z,100848.38
2023-05-16T21:52:38.615Z,100886.06
2023-05-16T21:55:08.299Z,100879.13
2023-05-16T21:57:36.190Z,100880.84
2023-05-16T22:00:06.682Z,100889.25
2023-05-16T22:02:36.306Z,100884.78
2023-05-16T22:05:04.777Z,100897.00
2023-05-16T22:07:32.680Z,100881.97
2023-05-16T22:10:02.039Z,100848.75
2023-05-16T22:12:29.891Z,100858.84
2023-05-16T22:14:58.384Z,100890.63
2023-05-16T22:17:26.434Z,100890.59
2023-05-16T22:19:54.267Z,100894.25
2023-05-16T22:22:22.146Z,100896.97
2023-05-16T22:24:49.982Z,100891.84
2023-05-16T22:27:19.144Z,100905.59
2023-05-16T22:29:46.988Z,100889.53
2023-05-16T22:32:14.996Z,100911.44
2023-05-16T22:34:42.840Z,100905.38
2023-05-16T22:37:11.265Z,100905.53
2023-05-16T22:39:39.184Z,100903.97
2023-05-16T22:42:07.377Z,100901.44
2023-05-16T22:44:36.580Z,100901.53
2023-05-16T22:47:04.440Z,100863.38
2023-05-16T22:49:32.305Z,100903.22
2023-05-16T22:52:00.188Z,100901.38
2023-05-16T22:54:28.097Z,100868.16
2023-05-16T22:56:56.062Z,100908.81
2023-05-16T22:59:24.008Z,100908.25
2023-05-16T23:01:53.208Z,100906.38
2023-05-16T23:04:21.027Z,100904.63
2023-05-16T23:06:48.963Z,100830.16
2023-05-16T23:09:16.757Z,100809.69
2023-05-16T23:11:44.552Z,100737.13
2023-05-16T23:14:12.373Z,100890.41
2023-05-16T23:16:40.174Z,100918.47
2023-05-16T23:19:09.822Z,100913.75
2023-05-16T23:21:38.380Z,100916.47
2023-05-16T23:24:06.608Z,100915.97
2023-05-16T23:26:34.575Z,100917.44
2023-05-16T23:29:02.360Z,100912.88
2023-05-16T23:31:30.205Z,100872.56
2023-05-16T23:33:58.068Z,100916.28
2023-05-16T23:36:27.407Z,100916.53
2023-05-16T23:38:55.165Z,100916.75
2023-05-16T23:41:23.015Z,100913.47
2023-05-16T23:43:50.815Z,100908.28
2023-05-16T23:46:18.709Z,100912.41
2023-05-16T23:48:46.788Z,100896.59
2023-05-16T23:51:14.655Z,100912.25
2023-05-16T23:53:44.008Z,100922.97
2023-05-16T23:56:11.783Z,100914.09
2023-05-16T23:58:39.582Z,100916.91
